createdAt,value
2023-01-12T00:02:07.436Z,9.80
2023-01-12T00:04:35.558Z,10.07
2023-01-12T00:07:06.927Z,9.83
2023-01-12T00:09:34.777Z,9.87
2023-01-12T00:12:04.491Z,9.88
2023-01-12T00:14:32.252Z,9.82
2023-01-12T00:17:00.064Z,9.59
2023-01-12T00:19:27.810Z,9.71
2023-01-12T00:22:02.169Z,9.69
2023-01-12T00:24:33.829Z,9.41
2023-01-12T00:27:03.991Z,9.72
2023-01-12T00:29:31.774Z,9.78
2023-01-12T00:32:00.727Z,9.53
2023-01-12T00:34:29.807Z,9.73
2023-01-12T00:36:58.469Z,9.61
2023-01-12T00:39:26.238Z,9.63
2023-01-12T00:42:12.808Z,9.71
2023-01-12T00:44:58.164Z,9.52
2023-01-12T00:47:26.351Z,9.54
2023-01-12T00:49:54.223Z,9.80
2023-01-12T00:52:30.915Z,9.76
2023-01-12T00:54:59.414Z,9.57
2023-01-12T00:57:29.551Z,9.47
2023-01-12T00:59:59.267Z,9.80
2023-01-12T01:02:27.684Z,9.74
2023-01-12T01:04:55.560Z,9.34
2023-01-12T01:07:23.345Z,9.84
2023-01-12T01:09:51.472Z,9.96
2023-01-12T01:12:19.681Z,9.91
2023-01-12T01:14:49.612Z,9.55
2023-01-12T01:17:17.282Z,9.84
2023-01-12T01:19:45.005Z,9.82
2023-01-12T01:22:13.439Z,10.00
2023-01-12T01:24:41.574Z,9.79
2023-01-12T01:27:09.307Z,9.84
2023-01-12T01:29:37.076Z,9.98
2023-01-12T01:32:06.366Z,10.19
2023-01-12T01:34:34.281Z,10.03
2023-01-12T01:37:01.965Z,10.14
2023-01-12T01:39:29.726Z,10.24
2023-01-12T01:41:57.403Z,10.35
2023-01-12T01:44:53.779Z,10.20
2023-01-12T01:47:37.417Z,10.22
2023-01-12T01:50:13.162Z,10.31
2023-01-12T01:52:44.730Z,9.95
2023-01-12T01:55:17.745Z,10.12
2023-01-12T01:57:50.122Z,10.24
2023-01-12T02:00:18.675Z,10.28
2023-01-12T02:02:49.487Z,10.57
2023-01-12T02:05:20.535Z,10.12
2023-01-12T02:07:49.156Z,10.17
2023-01-12T02:10:17.771Z,10.43
2023-01-12T02:13:03.702Z,10.43
2023-01-12T02:15:57.682Z,9.79
2023-01-12T02:18:33.771Z,10.18
2023-01-12T02:21:30.595Z,10.16
2023-01-12T02:24:29.441Z,9.94
2023-01-12T02:27:32.439Z,10.25
2023-01-12T02:30:40.099Z,10.20
2023-01-12T02:33:25.157Z,10.48
2023-01-12T02:36:01.863Z,10.31
2023-01-12T02:38:37.160Z,10.34
2023-01-12T02:41:15.457Z,10.41
2023-01-12T02:43:43.149Z,10.30
2023-01-12T02:46:15.866Z,10.13
2023-01-12T02:48:49.231Z,10.02
2023-01-12T02:51:24.558Z,10.36
2023-01-12T02:53:54.683Z,10.52
2023-01-12T02:56:25.928Z,10.37
2023-01-12T02:58:57.804Z,10.61
2023-01-12T03:01:28.037Z,10.22
2023-01-12T03:04:01.066Z,10.06
2023-01-12T03:06:39.794Z,10.38
2023-01-12T03:09:07.602Z,10.62
2023-01-12T03:11:40.714Z,10.22
2023-01-12T03:14:10.231Z,10.29
2023-01-12T03:16:41.195Z,10.05
2023-01-12T03:19:14.392Z,10.37
2023-01-12T03:21:46.593Z,10.33
2023-01-12T03:24:16.479Z,10.11
2023-01-12T03:26:47.698Z,10.18
2023-01-12T03:29:22.061Z,10.16
2023-01-12T03:31:49.947Z,10.37
2023-01-12T03:34:20.076Z,10.06
2023-01-12T03:36:58.518Z,10.20
2023-01-12T03:39:33.419Z,10.10
2023-01-12T03:42:09.341Z,10.07
2023-01-12T03:44:42.359Z,9.87
2023-01-12T03:47:15.647Z,10.46
2023-01-12T03:49:49.473Z,10.28
2023-01-12T03:52:19.073Z,10.42
2023-01-12T03:54:48.862Z,10.62
2023-01-12T03:57:17.538Z,10.00
2023-01-12T03:59:45.327Z,10.10
2023-01-12T04:02:14.372Z,10.29
2023-01-12T04:04:42.097Z,10.01
2023-01-12T04:07:11.215Z,10.02
2023-01-12T04:09:38.921Z,10.03
2023-01-12T04:12:13.242Z,9.92
2023-01-12T04:14:42.713Z,10.09
2023-01-12T04:17:12.048Z,9.91
2023-01-12T04:19:39.929Z,10.06
2023-01-12T04:22:25.727Z,10.07
2023-01-12T04:24:54.795Z,10.23
2023-01-12T04:27:22.533Z,10.03
2023-01-12T04:29:50.247Z,10.06
2023-01-12T04:32:18.028Z,10.12
2023-01-12T04:34:46.347Z,10.50
2023-01-12T04:37:14.695Z,10.19
2023-01-12T04:39:42.334Z,10.11
2023-01-12T04:42:31.979Z,10.28
2023-01-12T04:44:59.623Z,10.59
2023-01-12T04:47:27.338Z,10.07
2023-01-12T04:49:54.998Z,10.27
2023-01-12T04:52:22.746Z,9.86
2023-01-12T04:54:50.402Z,10.15
2023-01-12T04:57:19.457Z,10.62
2023-01-12T04:59:47.160Z,10.60
2023-01-12T05:02:14.966Z,9.92
2023-01-12T05:04:42.853Z,10.17
2023-01-12T05:07:10.536Z,10.33
2023-01-12T05:09:55.611Z,10.30
2023-01-12T05:12:24.682Z,10.19
2023-01-12T05:14:52.617Z,9.65
2023-01-12T05:17:20.435Z,10.17
2023-01-12T05:19:49.629Z,10.19
2023-01-12T05:22:17.473Z,10.02
2023-01-12T05:24:45.175Z,9.81
2023-01-12T05:27:12.910Z,9.95
2023-01-12T05:29:42.018Z,10.04
2023-01-12T05:32:09.688Z,10.14
2023-01-12T05:34:37.340Z,10.01
2023-01-12T05:37:04.999Z,9.56
2023-01-12T05:39:32.699Z,9.56
2023-01-12T05:42:17.771Z,9.88
2023-01-12T05:44:46.792Z,9.61
2023-01-12T05:47:14.456Z,10.03
2023-01-12T05:49:42.137Z,10.32
2023-01-12T05:52:09.806Z,9.65
2023-01-12T05:54:37.506Z,10.03
2023-01-12T05:57:05.158Z,10.19
2023-01-12T05:59:33.065Z,10.49
2023-01-12T06:02:02.234Z,9.60
2023-01-12T06:04:30.021Z,10.19
2023-01-12T06:06:57.736Z,10.14
2023-01-12T06:09:25.456Z,10.33
2023-01-12T06:12:10.726Z,10.38
2023-01-12T06:14:38.461Z,10.40
2023-01-12T06:17:07.543Z,10.27
2023-01-12T06:19:35.268Z,10.14
2023-01-12T06:22:03.063Z,9.57
2023-01-12T06:24:30.933Z,10.11
2023-01-12T06:26:58.667Z,10.10
2023-01-12T06:29:26.323Z,10.15
2023-01-12T06:31:54.051Z,10.33
2023-01-12T06:34:23.134Z,10.40
2023-01-12T06:36:50.947Z,10.19
2023-01-12T06:39:18.639Z,9.95
2023-01-12T06:42:03.766Z,9.91
2023-01-12T06:44:31.446Z,10.00
2023-01-12T06:46:59.153Z,10.17
2023-01-12T06:49:28.201Z,9.71
2023-01-12T06:51:55.897Z,9.94
2023-01-12T06:54:24.221Z,9.84
2023-01-12T06:56:51.975Z,9.96
2023-01-12T06:59:19.692Z,10.40
2023-01-12T07:01:47.474Z,9.72
2023-01-12T07:04:15.399Z,9.66
2023-01-12T07:06:44.485Z,9.82
2023-01-12T07:09:13.332Z,10.02
2023-01-12T07:11:41.205Z,10.15
2023-01-12T07:14:09.374Z,10.20
2023-01-12T07:16:37.181Z,10.29
2023-01-12T07:19:04.869Z,10.29
2023-01-12T07:21:32.530Z,10.07
2023-01-12T07:24:01.703Z,10.14
2023-01-12T07:26:29.398Z,9.89
2023-01-12T07:28:57.146Z,9.86
2023-01-12T07:31:24.853Z,10.08
2023-01-12T07:33:52.763Z,10.30
2023-01-12T07:36:20.905Z,9.78
2023-01-12T07:38:48.723Z,10.07
2023-01-12T07:41:31.670Z,10.05
2023-01-12T07:43:59.408Z,9.86
2023-01-12T07:46:27.116Z,10.38
2023-01-12T07:48:54.850Z,10.57
2023-01-12T07:51:22.541Z,9.77
2023-01-12T07:53:50.291Z,9.86
2023-01-12T07:56:19.432Z,9.80
2023-01-12T07:58:48.809Z,9.82
2023-01-12T08:01:17.082Z,9.72
2023-01-12T08:03:44.819Z,10.20
2023-01-12T08:06:12.496Z,9.69
2023-01-12T08:08:40.167Z,9.87
2023-01-12T08:11:10.248Z,9.71
2023-01-12T08:13:40.634Z,9.77
2023-01-12T08:16:15.650Z,9.47
2023-01-12T08:18:48.203Z,9.70
2023-01-12T08:21:20.611Z,9.64
2023-01-12T08:23:51.222Z,9.55
2023-01-12T08:26:24.796Z,9.60
2023-01-12T08:28:57.465Z,9.55
2023-01-12T08:31:26.833Z,9.69
2023-01-12T08:33:55.649Z,9.60
2023-01-12T08:36:24.426Z,9.62
2023-01-12T08:38:52.743Z,9.65
2023-01-12T08:41:37.530Z,9.90
2023-01-12T08:44:10.691Z,9.71
2023-01-12T08:46:46.963Z,9.45
2023-01-12T08:49:16.871Z,9.58
2023-01-12T08:51:45.807Z,9.84
2023-01-12T08:54:15.900Z,9.80
2023-01-12T08:56:43.664Z,10.07
2023-01-12T08:59:13.211Z,9.70
2023-01-12T09:01:41.103Z,9.90
2023-01-12T09:04:09.196Z,10.10
2023-01-12T09:06:38.537Z,10.13
2023-01-12T09:09:09.929Z,9.86
2023-01-12T09:11:39.162Z,9.80
2023-01-12T09:14:07.179Z,9.75
2023-01-12T09:16:36.897Z,9.86
2023-01-12T09:19:05.294Z,9.79
2023-01-12T09:21:34.061Z,9.70
2023-01-12T09:24:01.723Z,9.75
2023-01-12T09:26:32.407Z,9.88
2023-01-12T09:29:00.394Z,9.81
2023-01-12T09:31:30.522Z,10.19
2023-01-12T09:34:00.185Z,10.15
2023-01-12T09:36:29.634Z,10.02
2023-01-12T09:38:58.146Z,10.23
2023-01-12T09:41:51.175Z,10.55
2023-01-12T09:44:39.089Z,10.08
2023-01-12T09:47:11.576Z,10.41
2023-01-12T09:49:45.155Z,10.13
2023-01-12T09:52:16.330Z,10.46
2023-01-12T09:54:44.723Z,10.47
2023-01-12T09:57:44.416Z,10.52
2023-01-12T10:00:15.070Z,10.62
2023-01-12T10:02:46.513Z,10.26
2023-01-12T10:05:38.626Z,10.88
2023-01-12T10:08:16.029Z,10.59
2023-01-12T10:10:55.617Z,10.68
2023-01-12T10:13:25.259Z,10.62
2023-01-12T10:15:58.468Z,10.72
2023-01-12T10:18:32.108Z,10.75
2023-01-12T10:21:01.502Z,10.79
2023-01-12T10:23:29.549Z,10.82
2023-01-12T10:26:06.428Z,10.72
2023-01-12T10:28:36.951Z,11.21
2023-01-12T10:31:05.391Z,10.89
2023-01-12T10:33:36.097Z,10.77
2023-01-12T10:36:09.752Z,10.80
2023-01-12T10:38:39.876Z,11.31
2023-01-12T10:41:14.290Z,11.19
2023-01-12T10:43:43.225Z,10.96
2023-01-12T10:46:13.591Z,11.13
2023-01-12T10:48:43.768Z,11.10
2023-01-12T10:51:29.878Z,11.09
2023-01-12T10:54:02.536Z,11.25
2023-01-12T10:56:35.461Z,11.05
2023-01-12T10:59:06.099Z,11.22
2023-01-12T11:01:44.821Z,11.17
2023-01-12T11:04:15.167Z,11.47
2023-01-12T11:06:57.294Z,11.33
2023-01-12T11:09:27.327Z,11.03
2023-01-12T11:11:56.701Z,11.33
2023-01-12T11:14:30.758Z,11.32
2023-01-12T11:17:13.138Z,11.09
2023-01-12T11:19:44.255Z,11.17
2023-01-12T11:22:20.827Z,11.55
2023-01-12T11:24:55.361Z,11.57
2023-01-12T11:27:29.002Z,11.58
2023-01-12T11:30:00.930Z,11.63
2023-01-12T11:32:37.639Z,11.73
2023-01-12T11:35:18.074Z,11.50
2023-01-12T11:37:47.754Z,11.66
2023-01-12T11:40:26.708Z,11.74
2023-01-12T11:43:15.355Z,11.96
2023-01-12T11:45:52.742Z,11.77
2023-01-12T11:48:26.093Z,11.57
2023-01-12T11:50:55.652Z,11.68
2023-01-12T11:53:26.450Z,11.65
2023-01-12T11:56:07.371Z,11.83
2023-01-12T11:58:43.212Z,11.74
2023-01-12T12:01:21.132Z,11.92
2023-01-12T12:04:01.721Z,12.15
2023-01-12T12:06:50.076Z,11.87
2023-01-12T12:09:42.490Z,12.00
2023-01-12T12:12:19.123Z,12.23
2023-01-12T12:14:59.308Z,12.01
2023-01-12T12:17:35.920Z,12.32
2023-01-12T12:20:14.057Z,11.94
2023-01-12T12:22:58.501Z,12.17
2023-01-12T12:25:37.896Z,12.36
2023-01-12T12:28:30.379Z,12.23
2023-01-12T12:31:13.654Z,12.12
2023-01-12T12:33:54.449Z,11.87
2023-01-12T12:36:32.709Z,12.40
2023-01-12T12:39:35.925Z,12.20
2023-01-12T12:42:38.677Z,12.92
2023-01-12T12:45:22.362Z,12.58
2023-01-12T12:48:04.762Z,12.57
2023-01-12T12:50:36.261Z,12.63
2023-01-12T12:53:12.353Z,12.64
2023-01-12T12:55:40.593Z,12.71
2023-01-12T12:58:29.591Z,13.01
2023-01-12T13:01:42.340Z,12.80
2023-01-12T13:04:12.636Z,12.80
2023-01-12T13:06:44.895Z,12.79
2023-01-12T13:09:36.862Z,12.70
2023-01-12T13:12:21.038Z,12.44
2023-01-12T13:15:17.684Z,12.65
2023-01-12T13:17:47.691Z,12.84
2023-01-12T13:20:44.830Z,13.00
2023-01-12T13:23:45.510Z,13.03
2023-01-12T13:26:45.394Z,12.78
2023-01-12T13:29:49.797Z,12.83
2023-01-12T13:32:51.936Z,12.90
2023-01-12T13:35:51.263Z,12.53
2023-01-12T13:38:29.457Z,12.92
2023-01-12T13:41:04.165Z,12.77
2023-01-12T13:43:34.971Z,12.66
2023-01-12T13:46:05.279Z,12.99
2023-01-12T13:48:36.792Z,12.92
2023-01-12T13:51:13.702Z,13.09
2023-01-12T13:53:41.528Z,13.00
2023-01-12T13:56:20.505Z,12.98
2023-01-12T13:58:52.012Z,13.27
2023-01-12T14:01:25.914Z,13.22
2023-01-12T14:04:23.523Z,13.06
2023-01-12T14:07:03.288Z,13.56
2023-01-12T14:09:42.669Z,13.42
2023-01-12T14:12:27.118Z,13.74
2023-01-12T14:15:32.037Z,13.28
2023-01-12T14:18:04.828Z,13.51
2023-01-12T14:20:42.662Z,13.54
2023-01-12T14:23:23.998Z,13.34
2023-01-12T14:26:14.561Z,13.50
2023-01-12T14:28:43.839Z,13.26
2023-01-12T14:31:20.328Z,12.73
2023-01-12T14:33:53.363Z,13.08
2023-01-12T14:36:25.457Z,12.90
2023-01-12T14:38:54.475Z,12.92
2023-01-12T14:41:43.614Z,12.93
2023-01-12T14:44:37.196Z,13.03
2023-01-12T14:47:05.027Z,13.32
2023-01-12T14:49:34.472Z,12.88
2023-01-12T14:52:22.766Z,12.95
2023-01-12T14:54:52.207Z,12.98
2023-01-12T14:57:24.198Z,13.02
2023-01-12T14:59:52.890Z,12.43
2023-01-12T15:02:32.432Z,12.78
2023-01-12T15:05:03.414Z,12.94
2023-01-12T15:07:35.727Z,12.37
2023-01-12T15:10:25.471Z,12.52
2023-01-12T15:12:54.632Z,12.91
2023-01-12T15:15:23.857Z,12.93
2023-01-12T15:18:10.892Z,12.97
2023-01-12T15:20:58.910Z,13.10
2023-01-12T15:23:56.375Z,13.30
2023-01-12T15:26:24.147Z,13.32
2023-01-12T15:28:52.249Z,13.00
2023-01-12T15:31:26.774Z,13.05
2023-01-12T15:33:55.155Z,13.19
2023-01-12T15:36:22.961Z,13.42
2023-01-12T15:38:52.322Z,12.96
2023-01-12T15:41:43.903Z,12.98
2023-01-12T15:44:12.975Z,13.37
2023-01-12T15:46:41.157Z,12.53
2023-01-12T15:49:09.829Z,13.18
2023-01-12T15:51:37.836Z,13.07
2023-01-12T15:54:08.001Z,12.79
2023-01-12T15:56:36.124Z,13.16
2023-01-12T15:59:04.323Z,13.14
2023-01-12T16:01:37.629Z,12.88
2023-01-12T16:04:40.289Z,13.06
2023-01-12T16:06:55.612Z,12.57
2023-01-12T16:09:24.691Z,13.11
2023-01-12T16:11:52.475Z,13.01
2023-01-12T16:14:20.280Z,12.85
2023-01-12T16:16:47.984Z,12.90
2023-01-12T16:19:23.600Z,12.70
2023-01-12T16:21:55.171Z,12.85
2023-01-12T16:24:26.715Z,12.93
2023-01-12T16:26:54.808Z,12.84
2023-01-12T16:29:23.911Z,13.00
2023-01-12T16:31:51.955Z,12.83
2023-01-12T16:34:22.801Z,12.66
2023-01-12T16:37:00.535Z,13.06
2023-01-12T16:39:30.625Z,13.15
2023-01-12T16:42:03.492Z,13.07
2023-01-12T16:44:32.434Z,12.84
2023-01-12T16:47:00.412Z,13.01
2023-01-12T16:49:28.287Z,12.92
2023-01-12T16:51:56.779Z,12.87
2023-01-12T16:54:24.770Z,12.83
2023-01-12T16:56:54.382Z,13.17
2023-01-12T16:59:22.658Z,12.83
2023-01-12T17:01:51.716Z,12.79
2023-01-12T17:04:20.235Z,13.00
2023-01-12T17:06:48.744Z,12.68
2023-01-12T17:09:16.753Z,12.93
2023-01-12T17:11:44.749Z,12.74
2023-01-12T17:14:27.526Z,13.15
2023-01-12T17:16:57.359Z,12.68
2023-01-12T17:19:27.175Z,12.95
2023-01-12T17:21:56.360Z,12.76
2023-01-12T17:24:24.182Z,12.93
2023-01-12T17:26:53.676Z,13.06
2023-01-12T17:29:22.803Z,13.27
2023-01-12T17:31:50.703Z,13.29
2023-01-12T17:34:19.037Z,13.14
2023-01-12T17:36:46.944Z,12.95
2023-01-12T17:39:15.821Z,13.39
2023-01-12T17:42:01.471Z,12.81
2023-01-12T17:44:31.479Z,12.43
2023-01-12T17:46:59.419Z,12.59
2023-01-12T17:49:27.135Z,12.85
2023-01-12T17:51:54.902Z,12.82
2023-01-12T17:54:22.715Z,12.48
2023-01-12T17:56:50.638Z,12.82
2023-01-12T17:59:19.974Z,12.64
2023-01-12T18:01:49.704Z,12.54
2023-01-12T18:04:18.321Z,12.38
2023-01-12T18:06:46.258Z,12.77
2023-01-12T18:09:14.399Z,12.72
2023-01-12T18:11:42.334Z,12.50
2023-01-12T18:14:10.384Z,12.58
2023-01-12T18:16:38.319Z,12.58
2023-01-12T18:19:10.210Z,12.39
2023-01-12T18:21:38.015Z,12.40
2023-01-12T18:24:06.076Z,12.37
2023-01-12T18:26:35.901Z,12.48
2023-01-12T18:29:06.094Z,12.67
2023-01-12T18:31:37.251Z,12.38
2023-01-12T18:34:08.191Z,12.67
2023-01-12T18:36:38.301Z,12.47
2023-01-12T18:39:07.837Z,12.57
2023-01-12T18:41:54.771Z,12.65
2023-01-12T18:44:22.863Z,12.77
2023-01-12T18:47:08.419Z,12.84
2023-01-12T18:49:38.698Z,12.52
2023-01-12T18:52:24.638Z,12.55
2023-01-12T18:54:53.358Z,12.44
2023-01-12T18:57:23.457Z,12.65
2023-01-12T18:59:53.542Z,12.40
2023-01-12T19:02:22.051Z,12.27
2023-01-12T19:05:19.044Z,12.60
2023-01-12T19:08:04.165Z,12.63
2023-01-12T19:10:31.996Z,12.16
2023-01-12T19:13:13.813Z,12.29
2023-01-12T19:16:05.267Z,12.12
2023-01-12T19:18:36.664Z,12.34
2023-01-12T19:21:27.328Z,12.44
2023-01-12T19:24:12.867Z,12.60
2023-01-12T19:26:58.191Z,12.44
2023-01-12T19:29:26.041Z,12.38
2023-01-12T19:31:53.731Z,12.33
2023-01-12T19:34:24.785Z,12.36
2023-01-12T19:36:54.590Z,12.59
2023-01-12T19:39:34.287Z,12.45
2023-01-12T19:42:19.547Z,12.44
2023-01-12T19:44:47.214Z,12.33
2023-01-12T19:47:14.947Z,12.49
2023-01-12T19:49:42.676Z,12.47
2023-01-12T19:52:11.954Z,12.34
2023-01-12T19:54:39.599Z,12.32
2023-01-12T19:57:07.606Z,12.25
2023-01-12T19:59:35.369Z,12.51
2023-01-12T20:02:03.143Z,12.45
2023-01-12T20:04:31.112Z,12.36
2023-01-12T20:06:59.616Z,12.56
2023-01-12T20:09:28.796Z,12.42
2023-01-12T20:11:56.475Z,12.41
2023-01-12T20:14:24.183Z,12.48
2023-01-12T20:16:51.932Z,12.39
2023-01-12T20:19:20.634Z,12.26
2023-01-12T20:21:48.400Z,12.18
2023-01-12T20:24:16.418Z,12.16
2023-01-12T20:26:45.626Z,12.18
2023-01-12T20:29:13.333Z,12.04
2023-01-12T20:31:41.306Z,12.41
2023-01-12T20:34:09.146Z,12.70
2023-01-12T20:36:39.094Z,12.47
2023-01-12T20:39:10.921Z,12.71
2023-01-12T20:41:39.151Z,12.78
2023-01-12T20:44:09.520Z,12.81
2023-01-12T20:46:37.254Z,12.41
2023-01-12T20:49:05.040Z,12.74
2023-01-12T20:51:32.923Z,12.53
2023-01-12T20:54:02.322Z,12.14
2023-01-12T20:56:30.055Z,11.96
2023-01-12T20:58:58.379Z,12.59
2023-01-12T21:01:27.882Z,12.50
2023-01-12T21:03:55.674Z,12.58
2023-01-12T21:06:23.536Z,12.45
2023-01-12T21:08:51.401Z,12.92
2023-01-12T21:11:21.262Z,12.71
2023-01-12T21:13:49.063Z,12.93
2023-01-12T21:16:19.753Z,12.94
2023-01-12T21:18:49.123Z,12.62
2023-01-12T21:21:16.864Z,12.23
2023-01-12T21:23:46.099Z,12.44
2023-01-12T21:26:13.783Z,12.50
2023-01-12T21:28:41.689Z,12.53
2023-01-12T21:31:11.807Z,12.65
2023-01-12T21:33:39.949Z,12.32
2023-01-12T21:36:11.725Z,12.59
2023-01-12T21:38:39.652Z,12.44
2023-01-12T21:41:07.873Z,12.59
2023-01-12T21:43:35.640Z,12.44
2023-01-12T21:46:08.046Z,12.25
2023-01-12T21:48:36.634Z,12.44
2023-01-12T21:51:05.140Z,12.22
2023-01-12T21:53:34.502Z,12.33
2023-01-12T21:56:03.601Z,12.40
2023-01-12T21:58:33.196Z,12.74
2023-01-12T22:01:01.497Z,12.66
2023-01-12T22:03:30.086Z,12.61
2023-01-12T22:06:05.496Z,12.68
2023-01-12T22:08:35.812Z,12.45
2023-01-12T22:11:08.695Z,12.25
2023-01-12T22:13:37.018Z,12.19
2023-01-12T22:16:05.745Z,12.33
2023-01-12T22:18:34.644Z,12.52
2023-01-12T22:21:03.447Z,12.24
2023-01-12T22:23:31.675Z,12.59
2023-01-12T22:26:03.681Z,12.53
2023-01-12T22:28:33.299Z,12.30
2023-01-12T22:31:08.126Z,12.07
2023-01-12T22:33:35.902Z,12.31
2023-01-12T22:36:03.967Z,12.24
2023-01-12T22:38:31.934Z,12.35
2023-01-12T22:41:06.567Z,12.19
2023-01-12T22:43:40.433Z,12.40
2023-01-12T22:46:15.464Z,12.29
2023-01-12T22:48:43.842Z,12.43
2023-01-12T22:51:11.587Z,12.62
2023-01-12T22:53:39.328Z,12.55
2023-01-12T22:56:10.642Z,12.30
2023-01-12T22:58:38.499Z,12.50
2023-01-12T23:01:08.255Z,12.35
2023-01-12T23:03:37.077Z,12.73
2023-01-12T23:06:06.679Z,12.41
2023-01-12T23:08:34.349Z,12.47
2023-01-12T23:11:06.405Z,12.17
2023-01-12T23:13:36.201Z,12.40
2023-01-12T23:16:06.417Z,12.25
2023-01-12T23:18:36.432Z,12.58
2023-01-12T23:21:11.156Z,12.74
2023-01-12T23:23:39.536Z,12.71
2023-01-12T23:26:09.819Z,12.71
2023-01-12T23:28:41.411Z,12.03
2023-01-12T23:31:11.866Z,12.17
2023-01-12T23:33:41.116Z,12.33
2023-01-12T23:36:11.060Z,12.44
2023-01-12T23:38:38.745Z,12.61
2023-01-12T23:41:14.601Z,12.52
2023-01-12T23:43:44.121Z,12.32
2023-01-12T23:46:12.485Z,12.37
2023-01-12T23:48:41.493Z,11.72
2023-01-12T23:51:09.639Z,12.28
2023-01-12T23:53:37.283Z,12.25
2023-01-12T23:56:06.702Z,12.07
2023-01-12T23:58:34.780Z,12.09
